This is the latest recevied weather packets stored in our database for station/object EA3CH. If no packets are shown the sender has not sent any weather packets the latest 10 day(s).
| Time | Temp. | Humidity | Pressure | Rain* | Wind** | Luminosity | Snow |
|---|---|---|---|---|---|---|---|
| 1787985905 | 21.11° C | 51% | 1020.2 hPa | 0 mm | - | 0 W/m² | - |
| 1787985903 | 13.89° C | 81% | 1020.4 hPa | 0 mm | - | 0 W/m² | - |
| 1787985004 | 12.78° C | 83% | 1020.3 hPa | 0 mm | - | 0 W/m² | - |
| 1787984104 | 12.78° C | 83% | 1020.3 hPa | 0 mm | - | 0 W/m² | - |
| 1787983204 | 12.78° C | 83% | 1020.3 hPa | 0 mm | - | 0 W/m² | - |
| 1787982303 | 12.78° C | 83% | 1020.2 hPa | 0 mm | - | 0 W/m² | - |
| 1787981404 | 12.78° C | 83% | 1020.1 hPa | 0 mm | - | 0 W/m² | - |
| 1787980506 | 13.33° C | 74% | 1019.9 hPa | 0 mm | - | 0 W/m² | - |
| 1787980504 | 12.78° C | 83% | 1020.1 hPa | 0 mm | - | 0 W/m² | - |
| 1787979606 | 13.33° C | 73% | 1019.8 hPa | 0 mm | - | 0 W/m² | - |
| 1787979603 | 12.78° C | 82% | 1020 hPa | 0 mm | - | 0 W/m² | - |
| 1787978704 | 13.33° C | 80% | 1020 hPa | 0 mm | - | 0 W/m² | - |
| 1787977806 | 13.33° C | 70% | 1019.7 hPa | 0 mm | - | 0 W/m² | - |
| 1787977804 | 12.78° C | 80% | 1019.9 hPa | 0 mm | - | 0 W/m² | - |
| 1787976906 | 13.33° C | 71% | 1019.8 hPa | 0 mm | - | 0 W/m² | - |
| 1787976004 | 13.33° C | 81% | 1019.9 hPa | 0 mm | - | 0 W/m² | - |
| 1787975104 | 13.33° C | 80% | 1019.8 hPa | 0 mm | - | 0 W/m² | - |
| 1787974204 | 13.89° C | 78% | 1019.8 hPa | 0 mm | - | 0 W/m² | - |
| 1787973310 | 15° C | 70% | 1019.6 hPa | 0 mm | - | 0 W/m² | - |
| 1787973310 | 14.44° C | 80% | 1019.8 hPa | 0 mm | - | 0 W/m² | - |
| 1787972406 | 15.56° C | 68% | 1019.6 hPa | 0 mm | - | 0 W/m² | - |
| 1787972403 | 14.44° C | 80% | 1019.8 hPa | 0 mm | - | 0 W/m² | - |
| 1787971511 | 15.56° C | 68% | 1019.7 hPa | 0 mm | - | 0 W/m² | - |
| 1787971511 | 14.44° C | 80% | 1020 hPa | 0 mm | - | 0 W/m² | - |
| 1787970605 | 15.56° C | 67% | 1019.8 hPa | 0 mm | - | 0 W/m² | - |
* Rain latest hour (hover to see other rain measurements)
** Current wind speed in m/s (hover to see current wind gust speed)